Time;durP1;ratioP1;P1;durP2;ratioP2;P2;SDS_P1;SDS_P2;PMS_P1;PMS_P2;Temp;Humidity;BMP_temperature;BMP_pressure;BME280_temperature;BME280_humidity;BME280_pressure;Samples;Min_cycle;Max_cycle;Signal;HPM_P1;HPM_P2
2021/12/08 00:01:02;;;;;;;8.60;5.33;;;;;;;-9.14;94.99;102054.75;6363090;28;20488;-73
2021/12/08 00:04:06;;;;;;;8.20;5.50;;;;;;;-9.18;94.53;102051.34;6363411;28;20194;-74
2021/12/08 00:07:13;;;;;;;7.10;4.90;;;;;;;-9.13;94.49;102046.72;6364709;28;20188;-74
2021/12/08 00:10:40;;;;;;;5.63;5.13;;;;;;;-9.14;93.61;102060.84;6364190;28;20187;-74
2021/12/08 00:13:42;;;;;;;7.63;5.27;;;;;;;-9.17;93.67;102050.44;6363148;28;20211;-74
2021/12/08 00:16:48;;;;;;;9.17;5.83;;;;;;;-9.13;94.04;102056.44;6363681;28;20189;-74
2021/12/08 00:19:52;;;;;;;8.60;5.00;;;;;;;-9.16;94.65;102041.56;6362665;28;20376;-74
2021/12/08 00:22:57;;;;;;;7.43;4.73;;;;;;;-9.24;94.14;102038.38;6362898;28;20187;-74
2021/12/08 00:26:03;;;;;;;5.83;4.77;;;;;;;-9.16;94.77;102035.41;6363400;28;20220;-74
2021/12/08 00:29:07;;;;;;;6.67;4.97;;;;;;;-9.17;94.72;102034.56;6363774;28;20214;-74
2021/12/08 00:32:13;;;;;;;4.00;3.80;;;;;;;-9.10;95.27;102038.69;6363637;28;20183;-74
2021/12/08 00:35:17;;;;;;;5.27;4.77;;;;;;;-9.09;95.66;102037.75;6362290;28;20501;-74
2021/12/08 00:38:22;;;;;;;6.20;4.70;;;;;;;-9.05;95.50;102049.06;6362217;28;20467;-74
2021/12/08 00:41:26;;;;;;;5.17;4.67;;;;;;;-9.11;95.08;102034.31;6363158;28;20188;-74
2021/12/08 00:44:31;;;;;;;11.20;5.30;;;;;;;-9.02;95.30;102039.22;6363446;28;20187;-74
2021/12/08 00:47:37;;;;;;;9.73;5.40;;;;;;;-9.03;95.15;102047.22;6363435;28;20182;-74
2021/12/08 00:50:42;;;;;;;5.73;4.83;;;;;;;-8.99;94.97;102040.88;6361892;28;20403;-74
2021/12/08 00:53:47;;;;;;;7.50;4.63;;;;;;;-9.02;94.51;102033.94;6362892;28;20486;-74
2021/12/08 00:56:53;;;;;;;8.27;5.00;;;;;;;-8.93;94.52;102044.13;6362536;28;20184;-74
2021/12/08 00:59:57;;;;;;;12.20;5.13;;;;;;;-8.93;94.36;102038.81;6362860;28;20258;-74
2021/12/08 01:03:04;;;;;;;10.53;5.20;;;;;;;-8.87;94.15;102056.22;6361853;28;20186;-73
2021/12/08 01:06:09;;;;;;;5.43;4.70;;;;;;;-8.83;94.23;102041.94;6361739;28;20189;-73
2021/12/08 01:09:15;;;;;;;9.47;6.03;;;;;;;-8.84;94.39;102052.59;6362119;28;20259;-73
2021/12/08 01:12:19;;;;;;;5.50;4.97;;;;;;;-8.81;94.50;102055.13;6361670;28;20260;-74
2021/12/08 01:15:26;;;;;;;8.40;5.77;;;;;;;-8.78;94.95;102074.34;6361503;28;20485;-74
2021/12/08 01:18:32;;;;;;;8.20;5.77;;;;;;;-8.75;94.58;102062.78;6362615;28;20223;-74
2021/12/08 01:21:36;;;;;;;6.80;5.20;;;;;;;-8.66;93.82;102073.00;6362704;28;20182;-74
2021/12/08 01:24:41;;;;;;;8.07;6.27;;;;;;;-8.58;94.06;102070.88;6362812;28;20289;-73
2021/12/08 01:27:45;;;;;;;10.23;6.20;;;;;;;-8.49;94.47;102070.47;6362746;28;20183;-74
2021/12/08 01:30:52;;;;;;;10.43;5.20;;;;;;;-8.48;94.28;102072.19;6361875;28;20187;-73
2021/12/08 01:33:57;;;;;;;8.50;5.13;;;;;;;-8.38;93.47;102074.38;6361750;28;20300;-73
2021/12/08 01:37:02;;;;;;;7.70;5.67;;;;;;;-8.33;93.18;102076.81;6362722;28;20182;-74
2021/12/08 01:40:14;;;;;;;6.07;5.27;;;;;;;-8.25;93.29;102074.69;6366044;28;20214;-73
2021/12/08 01:43:25;;;;;;;11.60;5.40;;;;;;;-8.25;93.53;102074.69;6367387;28;20192;-74
2021/12/08 01:46:31;;;;;;;9.03;5.33;;;;;;;-8.29;93.53;102079.28;6366285;28;20417;-74
2021/12/08 01:49:37;;;;;;;7.23;4.40;;;;;;;-8.22;93.25;102069.25;6366758;28;20212;-74
2021/12/08 01:52:41;;;;;;;6.73;5.70;;;;;;;-8.12;92.92;102070.56;6366713;28;20235;-74
2021/12/08 01:55:46;;;;;;;9.53;5.20;;;;;;;-8.01;93.33;102062.97;6367350;28;20213;-74
2021/12/08 01:58:50;;;;;;;5.33;4.83;;;;;;;-7.91;93.12;102063.44;6366145;28;20183;-74
2021/12/08 02:01:54;;;;;;;5.53;4.73;;;;;;;-7.99;93.22;102063.78;6367334;28;20220;-74
2021/12/08 02:05:00;;;;;;;10.83;5.03;;;;;;;-7.96;92.25;102060.16;6365913;28;20191;-74
2021/12/08 02:08:06;;;;;;;5.93;5.30;;;;;;;-7.71;92.43;102060.72;6367221;28;20222;-74
2021/12/08 02:11:11;;;;;;;7.20;4.67;;;;;;;-7.70;92.05;102052.69;6367125;28;20241;-74
2021/12/08 02:14:16;;;;;;;5.30;4.80;;;;;;;-7.71;92.98;102048.34;6365588;28;20214;-74
2021/12/08 02:17:24;;;;;;;8.80;5.53;;;;;;;-7.66;93.44;102042.81;6367003;28;20184;-74
2021/12/08 02:20:30;;;;;;;7.03;4.90;;;;;;;-7.68;93.23;102040.22;6366941;28;20191;-74
2021/12/08 02:23:36;;;;;;;6.67;4.80;;;;;;;-7.68;93.85;102037.56;6365597;28;20419;-74
2021/12/08 02:26:43;;;;;;;9.00;5.30;;;;;;;-7.58;94.58;102034.50;6366797;28;20262;-74
2021/12/08 02:29:55;;;;;;;9.67;5.60;;;;;;;-7.60;94.76;102033.72;6365303;28;20497;-74
2021/12/08 02:49:57;;;;;;;6.03;4.90;;;;;;;-7.34;94.20;102012.97;6342183;28;20207;-74
2021/12/08 02:53:01;;;;;;;4.83;4.43;;;;;;;-7.30;95.23;102019.00;6365679;28;20312;-74
2021/12/08 02:56:07;;;;;;;4.83;4.53;;;;;;;-7.26;94.90;102017.91;6365677;28;20248;-74
2021/12/08 02:59:12;;;;;;;8.03;5.80;;;;;;;-7.19;94.93;102016.69;6365740;28;20184;-74
2021/12/08 03:02:17;;;;;;;5.30;4.80;;;;;;;-7.20;94.85;102015.81;6365613;28;20196;-74
2021/12/08 03:05:21;;;;;;;7.17;4.63;;;;;;;-7.12;95.54;102007.47;6364565;28;20188;-74
2021/12/08 03:08:26;;;;;;;5.83;4.60;;;;;;;-7.01;95.25;102005.16;6365786;28;20192;-74
2021/12/08 03:11:32;;;;;;;7.07;5.00;;;;;;;-6.97;95.13;102017.31;6364536;28;20472;-74
2021/12/08 03:14:37;;;;;;;5.17;4.37;;;;;;;-7.00;95.23;102017.47;6364672;28;20236;-74
2021/12/08 03:17:42;;;;;;;9.73;5.23;;;;;;;-6.98;95.35;102020.91;6365299;28;20184;-74
2021/12/08 03:20:49;;;;;;;10.17;5.27;;;;;;;-6.93;95.58;102018.03;6365287;28;20185;-74
2021/12/08 03:24:08;;;;;;;6.57;4.50;;;;;;;-6.97;95.75;102001.41;6365373;28;20263;-74
2021/12/08 03:27:18;;;;;;;7.37;5.03;;;;;;;-6.96;95.91;102008.44;6364048;28;20188;-74
2021/12/08 03:30:28;;;;;;;5.17;4.67;;;;;;;-6.93;97.04;101999.47;6363963;28;20500;-75
2021/12/08 03:33:32;;;;;;;4.53;4.13;;;;;;;-6.88;97.68;101990.31;6364824;28;20208;-74
2021/12/08 03:36:38;;;;;;;6.97;5.40;;;;;;;-6.83;97.63;101998.91;6364923;28;20220;-74
2021/12/08 03:39:43;;;;;;;5.47;4.73;;;;;;;-6.85;97.23;101995.47;6363620;28;20503;-74
2021/12/08 03:42:51;;;;;;;4.33;4.00;;;;;;;-6.83;97.05;101993.59;6364611;28;20184;-74
2021/12/08 03:45:56;;;;;;;3.90;3.70;;;;;;;-6.79;96.68;102000.47;6363508;28;20400;-73
2021/12/08 03:49:01;;;;;;;8.33;4.17;;;;;;;-6.88;96.83;102008.88;6364741;28;20266;-73
2021/12/08 03:52:06;;;;;;;4.50;4.10;;;;;;;-6.86;97.57;101999.09;6364396;28;20236;-74
2021/12/08 03:55:15;;;;;;;4.37;4.07;;;;;;;-6.85;97.37;101994.59;6364566;28;20210;-74
2021/12/08 03:58:21;;;;;;;5.97;4.27;;;;;;;-6.95;97.29;101988.91;6363281;28;20522;-74
2021/12/08 04:01:26;;;;;;;4.60;4.20;;;;;;;-7.07;97.81;101995.72;6362770;28;20183;-74
2021/12/08 04:04:39;;;;;;;7.70;4.30;;;;;;;-7.07;97.40;101992.19;6363867;28;20188;-74
2021/12/08 04:07:45;;;;;;;4.37;3.70;;;;;;;-7.12;97.96;101997.75;6362911;28;20189;-74
2021/12/08 04:10:51;;;;;;;4.77;4.10;;;;;;;-7.13;98.04;102006.63;6363027;28;20237;-74
2021/12/08 04:14:04;;;;;;;8.17;3.73;;;;;;;-7.14;97.80;102004.06;6363870;28;20184;-74
2021/12/08 04:17:11;;;;;;;4.17;3.77;;;;;;;-7.12;98.21;101996.88;6362670;28;20248;-74
2021/12/08 04:20:18;;;;;;;3.17;3.07;;;;;;;-7.10;97.86;101992.34;6362636;28;20237;-75
2021/12/08 04:23:24;;;;;;;4.40;4.10;;;;;;;-7.10;98.27;102000.31;6362610;28;20549;-74
2021/12/08 04:26:34;;;;;;;8.20;4.47;;;;;;;-7.10;97.90;101984.38;6362853;28;20221;-74
2021/12/08 04:29:43;;;;;;;6.53;4.67;;;;;;;-7.04;98.16;102000.00;6363744;28;20247;-74
2021/12/08 04:32:48;;;;;;;9.23;4.63;;;;;;;-7.00;97.72;101990.94;6363355;28;20185;-74
2021/12/08 04:35:54;;;;;;;4.83;4.30;;;;;;;-7.01;97.56;101986.59;6362895;28;20215;-74
2021/12/08 04:39:02;;;;;;;7.43;4.33;;;;;;;-6.98;97.50;102004.97;6363444;28;20281;-74
2021/12/08 04:42:11;;;;;;;5.70;5.17;;;;;;;-6.91;97.44;101990.50;6363347;28;20183;-74
2021/12/08 04:45:24;;;;;;;5.70;4.97;;;;;;;-6.82;98.03;101987.38;6363161;28;20214;-74
2021/12/08 04:48:44;;;;;;;5.93;4.87;;;;;;;-6.69;98.80;101996.41;6362552;28;20193;-75
2021/12/08 04:51:56;;;;;;;8.20;4.83;;;;;;;-6.57;99.11;101995.78;6362742;28;20229;-75
2021/12/08 05:02:03;;;;;;;6.70;4.20;;;;;;;-6.43;98.61;101977.34;6362837;28;20256;-74
2021/12/08 05:05:21;;;;;;;4.57;4.17;;;;;;;-6.37;98.11;101987.59;6362511;28;20251;-74
2021/12/08 05:08:35;;;;;;;3.93;3.63;;;;;;;-6.29;98.22;101979.22;6361711;28;20186;-74
2021/12/08 05:11:43;;;;;;;4.03;3.73;;;;;;;-6.22;97.97;101974.47;6362643;28;20187;-74
2021/12/08 05:14:53;;;;;;;4.63;4.23;;;;;;;-6.18;98.02;101976.00;6362017;28;20185;-74
2021/12/08 05:18:07;;;;;;;4.20;3.93;;;;;;;-6.14;97.36;101972.25;6362628;28;20185;-74
2021/12/08 05:21:18;;;;;;;4.40;3.90;;;;;;;-6.07;97.57;101968.31;6362427;28;20268;-75
2021/12/08 05:24:31;;;;;;;4.10;3.80;;;;;;;-6.03;97.55;101969.84;6361422;28;20491;-75
2021/12/08 05:27:40;;;;;;;3.50;3.40;;;;;;;-5.94;96.58;101961.41;6362610;28;20189;-75
2021/12/08 05:30:50;;;;;;;3.77;3.57;;;;;;;-5.87;96.33;101965.44;6362352;28;20256;-75
2021/12/08 05:33:56;;;;;;;6.00;3.87;;;;;;;-5.82;95.78;101958.03;6362181;28;20226;-75
2021/12/08 05:37:01;;;;;;;6.63;3.73;;;;;;;-5.78;95.51;101970.22;6362589;28;20248;-74
2021/12/08 05:40:08;;;;;;;3.90;3.27;;;;;;;-5.74;95.47;101969.09;6362180;28;20230;-74
2021/12/08 05:43:14;;;;;;;6.67;4.40;;;;;;;-5.68;95.74;101976.72;6362587;28;20186;-75
2021/12/08 05:46:22;;;;;;;5.17;3.90;;;;;;;-5.61;96.20;101962.13;6362523;28;20211;-74
2021/12/08 05:49:28;;;;;;;6.60;4.00;;;;;;;-5.58;96.54;101954.00;6362117;28;20185;-74
2021/12/08 05:52:33;;;;;;;3.27;3.13;;;;;;;-5.42;96.75;101957.50;6362495;28;20260;-75
2021/12/08 05:55:39;;;;;;;3.87;3.13;;;;;;;-5.36;96.96;101957.13;6362132;28;20209;-74
2021/12/08 05:58:44;;;;;;;5.53;3.03;;;;;;;-5.28;97.04;101952.22;6360921;28;20230;-75
2021/12/08 06:01:52;;;;;;;3.70;2.97;;;;;;;-5.18;97.11;101942.75;6361376;28;20258;-74
2021/12/08 06:04:58;;;;;;;2.90;2.80;;;;;;;-5.04;97.13;101951.75;6361925;28;20186;-75
2021/12/08 06:08:03;;;;;;;2.80;2.70;;;;;;;-4.90;97.05;101949.09;6360832;28;20389;-73
2021/12/08 06:11:11;;;;;;;2.40;2.30;;;;;;;-4.85;96.47;101936.41;6360789;28;20481;-73
2021/12/08 06:14:16;;;;;;;2.50;2.40;;;;;;;-4.79;96.44;101936.03;6361768;28;20208;-74
2021/12/08 06:17:23;;;;;;;3.07;2.87;;;;;;;-4.64;96.72;101935.09;6360990;28;20244;-74
2021/12/08 06:20:29;;;;;;;2.73;2.63;;;;;;;-4.60;97.19;101928.66;6361642;28;20252;-75
2021/12/08 06:23:33;;;;;;;2.63;2.47;;;;;;;-4.53;97.39;101932.63;6361130;28;20482;-74
2021/12/08 06:26:40;;;;;;;2.80;2.67;;;;;;;-4.31;98.46;101938.34;6365436;28;20225;-74
2021/12/08 06:29:47;;;;;;;2.40;2.20;;;;;;;-4.22;98.29;101931.59;6365912;28;20253;-75
2021/12/08 06:32:52;;;;;;;2.60;2.50;;;;;;;-4.17;97.89;101938.34;6366212;28;20335;-74
2021/12/08 06:36:06;;;;;;;2.37;2.27;;;;;;;-4.08;98.17;101935.09;6364990;28;20183;-75
2021/12/08 06:39:16;;;;;;;8.50;2.50;;;;;;;-3.98;97.99;101933.56;6366174;28;20209;-74
2021/12/08 06:42:24;;;;;;;3.70;3.03;;;;;;;-3.99;98.01;101937.19;6366029;28;20265;-74
2021/12/08 06:45:31;;;;;;;3.20;2.90;;;;;;;-3.91;97.89;101936.72;6364763;28;20445;-76
2021/12/08 06:48:39;;;;;;;2.83;2.73;;;;;;;-3.87;98.70;101923.06;6365822;28;20186;-75
2021/12/08 06:51:48;;;;;;;2.83;2.63;;;;;;;-3.69;97.88;101915.69;6364609;28;20472;-74
2021/12/08 06:54:55;;;;;;;2.40;2.40;;;;;;;-3.57;97.20;101922.06;6366093;28;20271;-75
2021/12/08 06:58:05;;;;;;;3.13;2.60;;;;;;;-3.61;97.57;101928.53;6365723;28;20276;-76
2021/12/08 07:01:36;;;;;;;5.83;2.53;;;;;;;-3.63;96.47;101927.78;6365406;28;20222;-74
2021/12/08 07:04:55;;;;;;;3.53;2.90;;;;;;;-3.52;95.80;101927.94;6365267;28;20260;-75
2021/12/08 07:08:06;;;;;;;2.20;2.20;;;;;;;-3.44;95.59;101920.28;6364100;28;20188;-76
2021/12/08 07:11:10;;;;;;;2.63;2.37;;;;;;;-3.41;95.37;101936.06;6364213;28;20216;-74
2021/12/08 07:14:15;;;;;;;7.23;3.03;;;;;;;-3.39;95.45;101937.69;6365173;28;20184;-75
2021/12/08 07:17:22;;;;;;;2.60;2.40;;;;;;;-3.34;95.80;101942.75;6365085;28;20286;-74
2021/12/08 07:20:42;;;;;;;2.50;2.40;;;;;;;-3.31;96.09;101937.19;6364797;28;20184;-74
2021/12/08 07:23:51;;;;;;;4.97;2.00;;;;;;;-3.18;96.50;101932.75;6364246;28;20270;-74
2021/12/08 07:27:01;;;;;;;2.33;2.27;;;;;;;-3.19;96.60;101926.56;6365181;28;20219;-73
2021/12/08 07:30:11;;;;;;;2.60;2.50;;;;;;;-3.16;96.58;101936.19;6365067;28;20189;-73
2021/12/08 07:33:17;;;;;;;2.50;2.40;;;;;;;-3.11;96.87;101934.06;6363568;28;20504;-74
2021/12/08 07:36:23;;;;;;;4.70;2.40;;;;;;;-3.04;96.82;101946.03;6362833;28;20356;-74
2021/12/08 07:39:41;;;;;;;3.00;2.80;;;;;;;-3.02;96.73;101940.56;6364901;28;20183;-74
2021/12/08 07:42:49;;;;;;;2.60;2.50;;;;;;;-2.98;97.02;101934.94;6363423;28;20434;-74
2021/12/08 07:46:02;;;;;;;2.57;2.47;;;;;;;-2.90;97.15;101932.59;6363356;28;20474;-74
2021/12/08 07:49:13;;;;;;;2.87;2.00;;;;;;;-2.87;97.68;101932.38;6363242;28;20479;-74
2021/12/08 07:52:21;;;;;;;2.70;2.60;;;;;;;-2.82;97.14;101935.59;6363940;28;20227;-74
2021/12/08 07:55:31;;;;;;;4.17;2.57;;;;;;;-2.77;96.64;101930.78;6364489;28;20189;-74
2021/12/08 07:58:37;;;;;;;4.00;2.50;;;;;;;-2.81;97.48;101933.78;6363144;28;20208;-75
2021/12/08 08:01:45;;;;;;;4.57;2.60;;;;;;;-2.82;97.02;101937.41;6363228;28;20183;-74
2021/12/08 08:04:50;;;;;;;2.73;2.43;;;;;;;-2.79;96.66;101940.75;6363731;28;20193;-75
2021/12/08 08:07:56;;;;;;;3.07;2.77;;;;;;;-2.79;97.26;101931.84;6362877;28;20555;-75
2021/12/08 08:11:06;;;;;;;2.63;2.53;;;;;;;-2.72;96.76;101942.03;6364062;28;20250;-75
2021/12/08 08:14:16;;;;;;;2.13;2.13;;;;;;;-2.75;96.65;101931.53;6362750;28;20188;-74
2021/12/08 08:17:27;;;;;;;2.87;2.77;;;;;;;-2.69;96.74;101931.13;6363261;28;20214;-75
2021/12/08 08:20:35;;;;;;;2.80;2.70;;;;;;;-2.67;97.18;101934.53;6363048;28;20185;-75
2021/12/08 08:23:39;;;;;;;2.83;2.57;;;;;;;-2.67;96.98;101929.19;6362480;28;20363;-74
2021/12/08 08:26:48;;;;;;;2.30;2.30;;;;;;;-2.65;96.93;101929.97;6363815;28;20189;-75
2021/12/08 08:29:54;;;;;;;2.73;2.63;;;;;;;-2.56;96.44;101932.00;6363771;28;20184;-74
2021/12/08 08:32:59;;;;;;;2.50;2.50;;;;;;;-2.53;96.09;101926.44;6363762;28;20252;-75
2021/12/08 08:36:07;;;;;;;2.27;2.27;;;;;;;-2.50;96.02;101935.19;6363640;28;20216;-74
2021/12/08 08:39:17;;;;;;;2.43;2.33;;;;;;;-2.42;96.09;101919.50;6363624;28;20215;-75
2021/12/08 08:42:29;;;;;;;2.67;2.57;;;;;;;-2.34;95.21;101941.19;6362810;28;20184;-74
2021/12/08 08:45:41;;;;;;;2.87;2.77;;;;;;;-2.32;95.57;101936.59;6362368;28;20218;-75
2021/12/08 08:48:49;;;;;;;2.50;2.40;;;;;;;-2.32;95.33;101928.56;6362087;28;20189;-74
2021/12/08 08:52:01;;;;;;;2.53;2.43;;;;;;;-2.32;95.08;101939.25;6362313;28;20243;-73
2021/12/08 08:55:10;;;;;;;2.53;2.33;;;;;;;-2.32;95.38;101939.25;6363121;28;20247;-73
2021/12/08 08:58:16;;;;;;;2.50;2.50;;;;;;;-2.30;95.33;101945.34;6361677;28;20244;-74
2021/12/08 09:01:24;;;;;;;2.70;2.60;;;;;;;-2.32;95.05;101944.63;6362029;28;20198;-73
2021/12/08 09:04:33;;;;;;;4.77;3.40;;;;;;;-2.29;95.33;101936.38;6361623;28;20242;-75
2021/12/08 09:07:40;;;;;;;4.07;2.87;;;;;;;-2.29;95.41;101939.06;6361700;28;20441;-74
2021/12/08 09:10:48;;;;;;;2.50;2.47;;;;;;;-2.32;94.59;101955.31;6362534;28;20305;-74
2021/12/08 09:14:00;;;;;;;3.00;2.90;;;;;;;-2.22;94.69;101961.72;6362889;28;20184;-74
2021/12/08 09:17:11;;;;;;;3.70;2.60;;;;;;;-2.23;94.18;101965.34;6362880;28;20184;-74
2021/12/08 09:20:26;;;;;;;3.93;3.00;;;;;;;-2.18;93.64;101963.19;6361714;28;20253;-75
2021/12/08 09:23:36;;;;;;;4.70;2.77;;;;;;;-2.19;93.76;101953.47;6362886;28;20197;-74
2021/12/08 09:26:44;;;;;;;2.90;2.80;;;;;;;-2.15;94.24;101952.28;6362834;28;20184;-75
2021/12/08 09:29:55;;;;;;;3.00;2.80;;;;;;;-2.09;94.00;101958.06;6361418;28;20285;-75
2021/12/08 09:33:06;;;;;;;2.80;2.70;;;;;;;-2.05;93.62;101954.19;6362439;28;20264;-74
2021/12/08 09:36:19;;;;;;;2.53;2.53;;;;;;;-2.00;93.05;101961.88;6361594;28;20193;-74
2021/12/08 09:39:29;;;;;;;3.97;3.17;;;;;;;-1.90;92.89;101949.59;6362282;28;20270;-75
2021/12/08 09:42:37;;;;;;;3.30;3.10;;;;;;;-1.87;93.13;101946.69;6361562;28;20242;-74
2021/12/08 09:45:48;;;;;;;3.20;2.87;;;;;;;-1.96;92.97;101936.66;6362510;28;20191;-74
2021/12/08 09:48:52;;;;;;;4.03;3.70;;;;;;;-1.93;92.57;101939.13;6362478;28;20196;-74
2021/12/08 09:51:59;;;;;;;7.63;3.30;;;;;;;-1.94;92.81;101934.72;6361722;28;20320;-74
2021/12/08 09:55:06;;;;;;;3.03;2.83;;;;;;;-1.85;92.34;101923.38;6361924;28;20185;-74
2021/12/08 09:58:16;;;;;;;3.40;3.20;;;;;;;-1.87;92.84;101930.63;6362291;28;20218;-74
2021/12/08 10:01:24;;;;;;;4.00;2.90;;;;;;;-1.81;93.11;101924.84;6366982;28;20217;-74
2021/12/08 10:04:28;;;;;;;3.30;3.00;;;;;;;-1.76;93.09;101917.34;6366735;28;20217;-76
2021/12/08 10:07:32;;;;;;;2.77;2.67;;;;;;;-1.70;92.19;101910.69;6365912;28;20359;-75
2021/12/08 10:10:37;;;;;;;2.87;2.67;;;;;;;-1.70;92.43;101916.91;6365868;28;20192;-75
2021/12/08 10:13:45;;;;;;;2.60;2.50;;;;;;;-1.69;93.50;101913.25;6367274;28;20263;-75
2021/12/08 10:16:54;;;;;;;4.50;2.63;;;;;;;-1.62;94.17;101913.66;6366873;28;20185;-75
2021/12/08 10:20:12;;;;;;;2.80;2.70;;;;;;;-1.61;94.13;101910.84;6365523;28;20410;-75
2021/12/08 10:23:21;;;;;;;2.37;2.37;;;;;;;-1.64;95.70;101905.72;6366713;28;20216;-75
2021/12/08 10:26:27;;;;;;;2.67;2.60;;;;;;;-1.57;95.29;101915.03;6366637;28;20207;-75
2021/12/08 10:29:33;;;;;;;2.97;2.80;;;;;;;-1.50;95.04;101900.22;6365843;28;20221;-75
2021/12/08 10:32:39;;;;;;;2.87;2.63;;;;;;;-1.54;96.03;101896.06;6366499;28;20186;-75
2021/12/08 10:36:01;;;;;;;3.00;2.50;;;;;;;-1.44;96.66;101891.72;6366219;28;20186;-75
2021/12/08 10:39:10;;;;;;;2.97;2.87;;;;;;;-1.45;97.47;101900.75;6364933;28;20229;-75
2021/12/08 10:42:18;;;;;;;3.50;3.20;;;;;;;-1.39;98.36;101894.91;6364918;28;20500;-75
2021/12/08 10:45:28;;;;;;;3.40;3.20;;;;;;;-1.35;98.13;101896.41;6364852;28;20473;-74
2021/12/08 10:48:38;;;;;;;2.80;2.70;;;;;;;-1.32;97.71;101896.19;6365017;28;20497;-74
2021/12/08 10:55:16;;;;;;;3.20;2.90;;;;;;;-1.22;97.05;101890.13;6364898;28;20187;-75
2021/12/08 10:58:25;;;;;;;3.67;3.00;;;;;;;-1.23;97.22;101883.91;6365988;28;20232;-75
2021/12/08 11:01:30;;;;;;;4.17;3.33;;;;;;;-1.21;96.65;101881.13;6364949;28;20207;-73
2021/12/08 11:04:37;;;;;;;4.33;3.33;;;;;;;-1.08;95.72;101881.91;6364456;28;20183;-74
2021/12/08 11:07:58;;;;;;;3.60;3.30;;;;;;;-0.98;95.70;101889.13;6365343;28;20299;-74
2021/12/08 11:11:07;;;;;;;3.43;3.13;;;;;;;-1.06;95.10;101885.31;6364579;28;20268;-74
2021/12/08 11:14:14;;;;;;;3.10;3.00;;;;;;;-1.06;95.99;101882.63;6365413;28;20186;-74
2021/12/08 11:17:26;;;;;;;3.87;3.57;;;;;;;-1.01;96.45;101872.41;6365721;28;20188;-75
2021/12/08 11:20:33;;;;;;;3.97;3.67;;;;;;;-1.03;95.82;101869.88;6364981;28;20284;-74
2021/12/08 11:23:45;;;;;;;3.43;3.13;;;;;;;-0.98;95.61;101858.81;6365013;28;20221;-75
2021/12/08 11:26:51;;;;;;;4.33;3.40;;;;;;;-0.93;95.64;101864.66;6365394;28;20260;-74
2021/12/08 11:29:56;;;;;;;8.57;5.30;;;;;;;-0.96;96.52;101864.88;6365054;28;20201;-74
2021/12/08 11:33:12;;;;;;;3.80;3.60;;;;;;;-1.01;96.74;101861.72;6364160;28;20219;-74
2021/12/08 11:36:20;;;;;;;3.90;3.60;;;;;;;-1.01;97.17;101867.06;6364592;28;20224;-74
2021/12/08 11:39:29;;;;;;;3.97;3.67;;;;;;;-0.97;98.03;101857.81;6364380;28;20237;-75
2021/12/08 11:42:36;;;;;;;3.40;3.20;;;;;;;-0.93;97.55;101870.88;6364320;28;20182;-75
2021/12/08 11:45:42;;;;;;;4.57;3.10;;;;;;;-0.87;97.59;101869.53;6364566;28;20182;-75
2021/12/08 11:48:57;;;;;;;3.50;3.30;;;;;;;-1.01;98.84;101867.06;6363597;28;20288;-75
2021/12/08 11:52:09;;;;;;;4.00;3.00;;;;;;;-0.92;98.33;101874.38;6364475;28;20229;-75
2021/12/08 11:55:20;;;;;;;3.57;3.33;;;;;;;-0.91;98.31;101876.09;6363101;28;20182;-74
2021/12/08 11:58:24;;;;;;;3.20;2.90;;;;;;;-0.95;98.35;101877.31;6364269;28;20183;-75
2021/12/08 12:01:29;;;;;;;3.17;2.97;;;;;;;-0.89;98.07;101871.47;6363049;28;20386;-74
2021/12/08 12:04:33;;;;;;;4.47;3.13;;;;;;;-0.88;98.38;101873.19;6363022;28;20230;-75
2021/12/08 12:07:39;;;;;;;3.57;3.37;;;;;;;-0.83;99.16;101871.88;6364038;28;20260;-74
2021/12/08 12:10:46;;;;;;;5.73;3.80;;;;;;;-0.85;99.55;101872.97;6364152;28;20266;-74
2021/12/08 12:13:50;;;;;;;4.47;3.20;;;;;;;-0.92;99.93;101866.34;6362797;28;20185;-74
2021/12/08 12:16:55;;;;;;;3.57;3.27;;;;;;;-1.14;99.70;101866.28;6362779;28;20229;-74
2021/12/08 12:20:06;;;;;;;2.90;2.80;;;;;;;-1.23;100.00;101867.00;6362598;28;20396;-74
2021/12/08 12:23:28;;;;;;;3.47;3.17;;;;;;;-1.25;100.00;101864.44;6364314;28;20254;-75
2021/12/08 12:26:47;;;;;;;3.33;3.07;;;;;;;-1.28;100.00;101865.50;6363657;28;20183;-74
2021/12/08 12:30:04;;;;;;;3.33;3.13;;;;;;;-1.38;100.00;101863.63;6362465;28;20534;-74
2021/12/08 12:33:17;;;;;;;3.40;3.17;;;;;;;-1.38;100.00;101869.00;6363050;28;20186;-74
2021/12/08 12:36:24;;;;;;;4.83;3.37;;;;;;;-1.47;100.00;101870.56;6362678;28;20412;-74
2021/12/08 12:39:31;;;;;;;3.77;3.47;;;;;;;-1.57;100.00;101864.19;6362791;28;20185;-74
2021/12/08 12:42:54;;;;;;;3.83;3.53;;;;;;;-1.69;100.00;101873.09;6362236;28;20247;-74
2021/12/08 12:46:04;;;;;;;4.10;3.47;;;;;;;-1.86;100.00;101862.81;6362079;28;20221;-74
2021/12/08 12:49:22;;;;;;;3.40;3.10;;;;;;;-1.93;100.00;101872.25;6362308;28;20220;-74
2021/12/08 12:52:35;;;;;;;3.77;3.47;;;;;;;-2.02;100.00;101867.56;6362893;28;20227;-74
2021/12/08 12:55:46;;;;;;;3.70;3.50;;;;;;;-2.15;100.00;101882.78;6363122;28;20193;-75
2021/12/08 12:58:52;;;;;;;3.73;3.43;;;;;;;-2.27;100.00;101883.66;6363327;28;20248;-75
2021/12/08 13:02:08;;;;;;;3.40;3.30;;;;;;;-2.40;100.00;101890.84;6362617;28;20274;-73
2021/12/08 13:05:15;;;;;;;3.80;3.60;;;;;;;-2.57;100.00;101887.53;6362655;28;20182;-74
2021/12/08 13:08:30;;;;;;;5.30;3.23;;;;;;;-2.49;100.00;101872.78;6362676;28;20192;-74
2021/12/08 13:11:52;;;;;;;2.90;2.80;;;;;;;-2.53;100.00;101877.47;6362702;28;20190;-74
2021/12/08 13:15:09;;;;;;;4.70;3.00;;;;;;;-2.53;100.00;101873.00;6362765;28;20286;-74
2021/12/08 13:18:16;;;;;;;3.20;2.90;;;;;;;-2.48;100.00;101869.13;6362851;28;20185;-74
2021/12/08 13:21:38;;;;;;;2.43;2.33;;;;;;;-2.38;99.78;101870.19;6362902;28;20219;-75
2021/12/08 13:24:43;;;;;;;2.17;2.10;;;;;;;-2.29;99.69;101874.91;6362841;28;20225;-75
2021/12/08 13:27:54;;;;;;;5.20;2.10;;;;;;;-2.10;97.98;101867.25;6361561;28;20191;-74
2021/12/08 13:31:12;;;;;;;6.43;2.67;;;;;;;-1.94;97.13;101870.53;6361398;28;20190;-74
2021/12/08 13:34:24;;;;;;;3.70;2.10;;;;;;;-1.84;96.16;101866.22;6363931;28;20185;-75
2021/12/08 13:37:30;;;;;;;2.90;2.10;;;;;;;-1.84;95.71;101866.22;6368030;28;20184;-75
2021/12/08 13:40:43;;;;;;;4.47;1.83;;;;;;;-1.87;95.39;101874.44;6367754;28;20285;-74
2021/12/08 13:43:50;;;;;;;3.03;1.93;;;;;;;-1.92;94.80;101864.09;6366641;28;20214;-74
2021/12/08 13:46:57;;;;;;;4.83;2.17;;;;;;;-1.87;94.74;101876.31;6367632;28;20185;-73
2021/12/08 13:50:11;;;;;;;1.70;1.70;;;;;;;-1.83;94.14;101877.78;6366290;28;20207;-75
2021/12/08 13:53:16;;;;;;;1.60;1.60;;;;;;;-1.75;94.66;101870.91;6366745;28;20233;-75
2021/12/08 13:56:39;;;;;;;1.93;1.80;;;;;;;-1.70;93.18;101874.09;6366192;28;20500;-76
2021/12/08 13:59:57;;;;;;;1.73;1.63;;;;;;;-1.61;92.82;101878.75;6366156;28;20272;-75
2021/12/08 14:03:08;;;;;;;1.77;1.73;;;;;;;-1.57;91.99;101880.25;6365975;28;20443;-74
2021/12/08 14:06:14;;;;;;;2.17;1.67;;;;;;;-1.44;90.32;101881.00;6367400;28;20193;-75
2021/12/08 14:09:19;;;;;;;1.57;1.57;;;;;;;-1.43;89.98;101874.69;6367248;28;20186;-74
2021/12/08 14:12:24;;;;;;;1.50;1.50;;;;;;;-1.50;89.63;101881.50;6367196;28;20190;-75
2021/12/08 14:15:32;;;;;;;1.40;1.40;;;;;;;-1.41;87.91;101870.06;6366276;28;20209;-75
2021/12/08 14:18:40;;;;;;;2.27;1.73;;;;;;;-1.57;87.67;101880.25;6366816;28;20271;-74
2021/12/08 14:22:04;;;;;;;2.43;1.70;;;;;;;-1.74;87.65;101888.66;6365654;28;20217;-74
2021/12/08 14:25:09;;;;;;;2.03;1.93;;;;;;;-1.76;88.31;101885.22;6366403;28;20201;-74
2021/12/08 14:28:44;;;;;;;1.60;1.60;;;;;;;-1.83;87.91;101878.63;6366805;28;20185;-75
2021/12/08 14:31:51;;;;;;;1.20;1.20;;;;;;;-1.74;86.95;101872.59;6365416;28;20480;-75
2021/12/08 14:34:55;;;;;;;1.27;1.27;;;;;;;-1.59;85.40;101871.44;6366531;28;20191;-75
2021/12/08 14:38:02;;;;;;;2.20;1.37;;;;;;;-1.76;85.13;101879.03;6366167;28;20248;-75
2021/12/08 14:41:20;;;;;;;1.20;1.20;;;;;;;-1.75;85.99;101884.28;6366344;28;20241;-74
2021/12/08 14:44:27;;;;;;;2.00;1.80;;;;;;;-1.71;85.53;101872.38;6365986;28;20192;-75
2021/12/08 14:47:36;;;;;;;1.30;1.30;;;;;;;-1.53;84.60;101876.34;6365890;28;20183;-74
2021/12/08 14:50:40;;;;;;;1.77;1.20;;;;;;;-1.60;85.43;101880.47;6365012;28;20213;-74
2021/12/08 14:53:44;;;;;;;1.70;1.40;;;;;;;-1.51;85.60;101868.19;6365527;28;20305;-74
2021/12/08 14:57:05;;;;;;;1.27;1.23;;;;;;;-1.50;85.23;101870.78;6365664;28;20190;-74
2021/12/08 15:00:13;;;;;;;1.63;1.63;;;;;;;-1.49;85.66;101877.81;6364569;28;20373;-74
2021/12/08 15:03:19;;;;;;;1.90;1.37;;;;;;;-1.54;86.05;101884.50;6364453;28;20397;-74